Time;durP1;ratioP1;P1;durP2;ratioP2;P2;SDS_P1;SDS_P2;PMS_P1;PMS_P2;Temp;Humidity;BMP_temperature;BMP_pressure;BME280_temperature;BME280_humidity;BME280_pressure;Samples;Min_cycle;Max_cycle;Signal;HPM_P1;HPM_P2
2021/08/16 00:02:15;;;;;;;7.70;3.17;;;;;;;22.49;50.54;99073.75;6039230;23;20062;-79
2021/08/16 00:04:42;;;;;;;8.73;3.75;;;;;;;22.46;50.19;99076.78;6038545;23;20031;-79
2021/08/16 00:07:09;;;;;;;8.05;3.20;;;;;;;22.43;50.43;99079.00;6039378;23;20074;-79
2021/08/16 00:09:35;;;;;;;7.10;3.47;;;;;;;22.37;50.30;99075.19;6038958;23;20023;-79
2021/08/16 00:12:04;;;;;;;5.45;3.20;;;;;;;22.32;50.70;99069.56;6038775;23;20034;-78
2021/08/16 00:14:31;;;;;;;5.85;2.88;;;;;;;22.27;50.52;99078.13;6038410;23;20065;-78
2021/08/16 00:16:59;;;;;;;7.72;2.92;;;;;;;22.21;50.56;99084.22;6038758;23;20343;-79
2021/08/16 00:19:25;;;;;;;8.93;2.78;;;;;;;22.14;50.61;99078.75;6039072;23;20114;-78
2021/08/16 00:21:53;;;;;;;4.50;2.47;;;;;;;22.05;50.95;99083.31;6040170;23;20098;-80
2021/08/16 00:24:20;;;;;;;7.45;2.97;;;;;;;21.99;50.88;99089.41;6038453;23;20106;-80
2021/08/16 00:26:49;;;;;;;9.23;2.65;;;;;;;21.92;51.48;99085.78;6039088;23;20547;-81
2021/08/16 00:29:17;;;;;;;5.65;2.45;;;;;;;21.86;51.20;99084.63;6038496;23;20023;-81
2021/08/16 00:31:44;;;;;;;5.95;2.63;;;;;;;21.80;51.29;99082.69;6038792;23;20098;-82
2021/08/16 00:34:10;;;;;;;6.88;2.78;;;;;;;21.74;51.37;99079.72;6038850;23;20413;-82
2021/08/16 00:36:37;;;;;;;6.68;2.70;;;;;;;21.68;51.38;99064.28;6038523;23;20067;-81
2021/08/16 00:39:04;;;;;;;5.32;2.75;;;;;;;21.64;51.50;99067.53;6038556;23;20090;-81
2021/08/16 00:41:31;;;;;;;8.45;2.70;;;;;;;21.58;51.39;99066.38;6038476;23;20063;-81
2021/08/16 00:43:58;;;;;;;5.40;2.10;;;;;;;21.53;51.28;99072.25;6038599;23;20058;-79
2021/08/16 00:46:28;;;;;;;4.82;2.42;;;;;;;21.46;51.30;99072.13;6038826;23;20070;-79
2021/08/16 00:48:55;;;;;;;8.68;2.83;;;;;;;21.40;51.09;99066.63;6039224;23;20023;-79
2021/08/16 00:51:25;;;;;;;8.55;2.63;;;;;;;21.30;51.53;99070.38;6038707;23;20098;-78
2021/08/16 00:53:52;;;;;;;8.00;2.55;;;;;;;21.22;51.33;99079.28;6038402;23;20063;-79
2021/08/16 00:56:20;;;;;;;6.00;2.17;;;;;;;21.13;51.36;99080.31;6038393;23;20102;-79
2021/08/16 00:58:47;;;;;;;8.00;2.28;;;;;;;21.06;51.49;99080.19;6038871;23;20095;-82
2021/08/16 01:01:15;;;;;;;5.40;2.05;;;;;;;21.00;51.79;99086.19;6039073;23;20062;-81
2021/08/16 01:03:41;;;;;;;6.05;2.28;;;;;;;20.95;51.82;99081.38;6038262;23;20027;-81
2021/08/16 01:06:08;;;;;;;11.32;2.90;;;;;;;20.91;51.99;99085.41;6038334;23;20034;-81
2021/08/16 01:08:35;;;;;;;7.10;2.58;;;;;;;20.88;52.17;99091.09;6038202;23;20131;-81
2021/08/16 01:11:02;;;;;;;9.02;2.38;;;;;;;20.85;51.99;99078.03;6038499;23;20098;-80
2021/08/16 01:13:29;;;;;;;7.78;2.20;;;;;;;20.84;52.17;99081.72;6040098;23;20099;-80
2021/08/16 01:15:59;;;;;;;7.57;2.45;;;;;;;20.81;52.73;99076.69;6038585;23;20063;-80
2021/08/16 01:18:28;;;;;;;4.00;2.20;;;;;;;20.81;52.45;99090.06;6038298;23;20024;-79
2021/08/16 01:20:55;;;;;;;5.18;2.08;;;;;;;20.80;52.60;99083.06;6038841;23;20090;-78
2021/08/16 01:23:26;;;;;;;5.07;2.47;;;;;;;20.78;53.14;99077.06;6038583;23;20106;-79
2021/08/16 01:25:53;;;;;;;6.15;2.00;;;;;;;20.81;52.87;99076.69;6038151;23;20058;-79
2021/08/16 01:28:22;;;;;;;4.13;2.05;;;;;;;20.79;53.06;99071.50;6038978;23;20102;-78
2021/08/16 01:30:58;;;;;;;5.20;2.30;;;;;;;20.78;53.56;99063.69;6040176;23;20098;-79
2021/08/16 01:33:26;;;;;;;6.25;2.55;;;;;;;20.80;53.30;99062.50;6040285;23;20027;-78
2021/08/16 01:36:08;;;;;;;5.93;2.28;;;;;;;;;;6040610;23;20103;-79
2021/08/16 01:38:38;;;;;;;6.65;2.65;;;;;;;20.80;53.44;99062.50;6041066;23;20393;-79
2021/08/16 01:41:05;;;;;;;4.07;2.10;;;;;;;20.80;53.33;99057.16;6040864;23;20111;-79
2021/08/16 01:43:32;;;;;;;4.90;2.58;;;;;;;20.79;53.44;99066.16;6039905;23;20063;-79
2021/08/16 01:45:59;;;;;;;7.35;2.60;;;;;;;20.78;53.44;99064.50;6040739;23;20027;-78
2021/08/16 01:48:27;;;;;;;6.75;2.55;;;;;;;20.76;53.42;99054.97;6040243;23;20027;-79
2021/08/16 01:50:55;;;;;;;9.25;3.08;;;;;;;20.74;53.93;99059.69;6040543;23;20033;-78
2021/08/16 01:53:22;;;;;;;7.45;2.60;;;;;;;20.73;53.66;99058.84;6040204;23;20102;-78
2021/08/16 01:55:50;;;;;;;8.73;2.95;;;;;;;20.72;53.91;99049.16;6040611;23;20027;-78
2021/08/16 01:58:16;;;;;;;10.57;2.75;;;;;;;20.71;53.93;99058.19;6040012;23;20102;-78
2021/08/16 02:00:43;;;;;;;6.07;2.60;;;;;;;20.67;53.91;99055.00;6040004;23;20029;-78
2021/08/16 02:03:11;;;;;;;5.07;2.03;;;;;;;20.65;54.07;99058.84;6043337;23;20031;-78
2021/08/16 02:05:40;;;;;;;6.53;2.72;;;;;;;20.61;54.03;99058.38;6045159;23;20065;-78
2021/08/16 02:08:07;;;;;;;6.28;2.60;;;;;;;20.59;54.17;99049.66;6044283;23;20029;-80
2021/08/16 02:10:34;;;;;;;6.75;2.85;;;;;;;20.56;54.37;99047.34;6044264;23;20462;-81
2021/08/16 02:13:04;;;;;;;8.48;2.92;;;;;;;20.54;54.55;99046.69;6044917;23;20105;-81
2021/08/16 02:15:43;;;;;;;4.60;2.72;;;;;;;20.49;54.74;99033.00;6044835;23;20067;-81
2021/08/16 02:18:10;;;;;;;9.77;3.20;;;;;;;20.53;54.31;99034.31;6044854;23;20034;-81
2021/08/16 02:20:36;;;;;;;4.78;2.65;;;;;;;20.51;54.33;99036.31;6045663;23;20059;-81
2021/08/16 02:23:08;;;;;;;5.80;3.15;;;;;;;20.48;55.02;99024.13;6045035;23;20395;-81
2021/08/16 02:25:35;;;;;;;8.05;3.40;;;;;;;20.50;54.70;99022.13;6044873;23;20486;-81
2021/08/16 02:28:02;;;;;;;8.27;3.15;;;;;;;20.50;54.61;99030.16;6044809;23;20026;-81
2021/08/16 02:30:30;;;;;;;10.85;3.40;;;;;;;20.51;54.57;99014.94;6044423;23;20103;-81
2021/08/16 02:33:11;;;;;;;8.48;3.13;;;;;;;20.47;55.18;99019.78;6044669;23;20030;-81
2021/08/16 02:35:39;;;;;;;5.50;2.70;;;;;;;20.51;54.81;99021.13;6044772;23;20098;-81
2021/08/16 02:38:10;;;;;;;13.20;3.55;;;;;;;20.51;55.30;99023.78;6069647;23;20066;-81
2021/08/16 02:40:38;;;;;;;7.60;3.28;;;;;;;20.54;54.83;99028.81;6044305;23;20065;-81
2021/08/16 02:43:08;;;;;;;6.88;3.58;;;;;;;20.54;55.22;99019.94;6045086;23;20406;-81
2021/08/16 02:45:34;;;;;;;6.65;3.22;;;;;;;20.55;54.80;99024.28;6044559;23;20097;-81
2021/08/16 02:48:02;;;;;;;11.25;3.22;;;;;;;20.55;55.05;99026.94;6045664;23;20058;-81
2021/08/16 02:50:29;;;;;;;8.20;3.10;;;;;;;20.54;54.81;99026.13;6044322;23;20069;-81
2021/08/16 02:52:58;;;;;;;7.93;3.55;;;;;;;20.54;54.95;99019.94;6044721;23;20106;-81
2021/08/16 02:55:25;;;;;;;8.90;3.42;;;;;;;20.55;54.65;99021.59;6044555;23;20408;-81
2021/08/16 02:57:52;;;;;;;8.05;3.47;;;;;;;20.54;54.76;99028.81;6044400;23;20062;-81
2021/08/16 03:00:19;;;;;;;8.48;3.83;;;;;;;20.53;55.06;99037.00;6069492;23;20078;-81
2021/08/16 03:02:52;;;;;;;10.10;3.55;;;;;;;20.49;55.74;99024.97;6044939;23;20118;-78
2021/08/16 03:05:19;;;;;;;;;;;;;;;20.49;54.20;99030.31;6039958;23;20082;-78
2021/08/16 03:07:47;;;;;;;7.22;3.50;;;;;;;20.50;54.81;99019.47;6039503;23;19918;-78
2021/08/16 03:10:14;;;;;;;14.73;4.63;;;;;;;20.48;55.10;99031.34;6039595;23;20338;-78
2021/08/16 03:12:41;;;;;;;14.02;4.65;;;;;;;20.42;55.04;99035.50;6039726;23;20451;-79
2021/08/16 03:15:09;;;;;;;14.43;5.25;;;;;;;20.35;55.27;99027.34;6039323;23;20090;-78
2021/08/16 03:17:36;;;;;;;12.77;4.78;;;;;;;20.33;55.12;99031.19;6039903;23;20103;-78
2021/08/16 03:20:04;;;;;;;9.20;4.53;;;;;;;20.27;55.24;99030.88;6039127;23;20094;-79
2021/08/16 03:22:43;;;;;;;12.50;4.32;;;;;;;20.21;56.19;99033.34;6039612;23;20106;-78
2021/08/16 03:25:11;;;;;;;12.07;4.70;;;;;;;20.21;55.49;99036.88;6039034;23;20102;-78
2021/08/16 03:27:41;;;;;;;12.88;4.47;;;;;;;20.17;56.26;99039.06;6039656;23;20027;-78
2021/08/16 03:30:09;;;;;;;10.02;4.18;;;;;;;20.17;55.89;99030.19;6040136;23;20451;-79
2021/08/16 03:32:35;;;;;;;17.67;4.78;;;;;;;20.15;55.82;99035.69;6041186;23;20439;-78
2021/08/16 03:35:03;;;;;;;11.75;4.40;;;;;;;20.14;55.79;99038.53;6038810;23;20065;-78
2021/08/16 03:37:38;;;;;;;15.80;4.13;;;;;;;20.12;56.11;99038.72;6039608;23;20094;-78
2021/08/16 03:40:06;;;;;;;15.52;4.93;;;;;;;20.14;55.95;99044.72;6039462;23;20343;-78
2021/08/16 03:42:35;;;;;;;12.35;4.65;;;;;;;20.14;56.12;99035.84;6039376;23;20459;-78
2021/08/16 03:45:05;;;;;;;17.33;4.82;;;;;;;20.14;55.82;99036.69;6040241;23;20079;-79
2021/08/16 03:47:31;;;;;;;15.07;5.68;;;;;;;20.16;55.76;99034.72;6038907;23;20098;-78
2021/08/16 03:49:58;;;;;;;10.90;4.38;;;;;;;20.15;55.75;99033.03;6039039;23;20422;-78
2021/08/16 03:52:25;;;;;;;10.77;4.50;;;;;;;20.13;55.58;99024.34;6038471;23;20094;-78
2021/08/16 03:54:51;;;;;;;17.02;5.43;;;;;;;20.12;55.40;99019.19;6038658;23;20066;-78
2021/08/16 03:57:18;;;;;;;17.02;4.82;;;;;;;20.12;55.80;99021.84;6038832;23;20027;-78
2021/08/16 03:59:45;;;;;;;13.07;4.85;;;;;;;20.09;55.77;99025.69;6038767;23;20058;-78
2021/08/16 04:02:12;;;;;;;12.63;4.72;;;;;;;20.08;55.63;99023.19;6039147;23;20101;-78
2021/08/16 04:04:39;;;;;;;10.98;4.80;;;;;;;20.07;55.71;99017.00;6038809;23;20031;-80
2021/08/16 04:07:11;;;;;;;13.30;5.40;;;;;;;20.04;56.06;99025.38;6038771;23;20073;-81
2021/08/16 04:09:37;;;;;;;14.80;5.28;;;;;;;20.05;55.77;99019.00;6038654;23;20059;-81
2021/08/16 04:12:11;;;;;;;11.23;4.80;;;;;;;20.00;56.42;99018.69;6039230;23;20407;-81
2021/08/16 04:14:38;;;;;;;15.80;5.20;;;;;;;20.03;55.65;99029.88;6038971;23;20400;-81
2021/08/16 04:17:24;;;;;;;14.05;5.38;;;;;;;19.98;56.35;99021.53;6039324;23;20478;-81
2021/08/16 04:19:51;;;;;;;15.40;5.72;;;;;;;20.02;55.74;99019.34;6038921;23;20029;-81
2021/08/16 04:22:17;;;;;;;13.23;4.82;;;;;;;20.03;56.12;99018.34;6039012;23;20098;-80
2021/08/16 04:24:44;;;;;;;13.90;4.82;;;;;;;20.03;55.73;99016.50;6039037;23;20051;-81
2021/08/16 04:27:17;;;;;;;14.75;5.03;;;;;;;20.01;56.50;99007.84;6038943;23;20490;-81
2021/08/16 04:29:44;;;;;;;12.00;4.65;;;;;;;20.03;55.87;99005.81;6038793;23;20394;-81
2021/08/16 04:32:24;;;;;;;16.50;5.53;;;;;;;20.00;56.52;99008.00;6040031;23;20390;-80
2021/08/16 04:34:50;;;;;;;14.85;5.00;;;;;;;20.03;56.04;99007.66;6038377;23;20098;-80
2021/08/16 04:37:23;;;;;;;17.88;5.50;;;;;;;19.99;56.39;99008.97;6038726;23;20063;-80
2021/08/16 04:39:50;;;;;;;18.02;5.38;;;;;;;19.99;55.75;99008.97;6038991;23;20467;-80
2021/08/16 04:42:22;;;;;;;14.50;5.15;;;;;;;19.95;56.67;99007.66;6038542;23;20027;-81
2021/08/16 04:44:49;;;;;;;13.43;4.57;;;;;;;19.95;56.11;99011.13;6039582;23;20105;-81
2021/08/16 04:47:27;;;;;;;16.58;5.05;;;;;;;19.90;56.54;99006.31;6038884;23;20427;-80
2021/08/16 04:49:57;;;;;;;13.77;5.22;;;;;;;19.92;56.36;99006.97;6039151;23;20062;-80
2021/08/16 04:52:29;;;;;;;16.77;5.95;;;;;;;19.89;56.77;99007.28;6038324;23;20107;-80
2021/08/16 04:54:56;;;;;;;13.55;5.63;;;;;;;19.90;56.00;99010.81;6038535;23;20098;-80
2021/08/16 04:57:46;;;;;;;16.63;5.00;;;;;;;19.85;56.63;99005.13;6038414;23;20098;-80
2021/08/16 05:00:14;;;;;;;13.07;4.75;;;;;;;19.89;56.48;99004.63;6039220;23;20027;-80
2021/08/16 05:02:41;;;;;;;14.02;5.28;;;;;;;19.89;56.31;99012.63;6038353;23;20055;-81
2021/08/16 05:05:14;;;;;;;14.00;4.82;;;;;;;19.90;56.56;99013.47;6038162;23;20082;-80
2021/08/16 05:07:49;;;;;;;13.03;5.10;;;;;;;19.86;56.78;99006.78;6038443;23;20024;-80
2021/08/16 05:10:18;;;;;;;13.20;4.78;;;;;;;19.88;56.22;99008.28;6038732;23;20530;-80
2021/08/16 05:12:51;;;;;;;14.05;5.10;;;;;;;19.84;57.12;99006.97;6038445;23;20110;-82
2021/08/16 05:15:19;;;;;;;19.77;5.35;;;;;;;19.86;56.27;99001.47;6038107;23;20106;-79
2021/08/16 05:17:47;;;;;;;16.00;4.38;;;;;;;19.83;56.50;98991.94;6038642;23;20027;-79
2021/08/16 05:20:16;;;;;;;12.20;4.53;;;;;;;19.85;56.65;98999.78;6040043;23;20025;-79
2021/08/16 05:22:46;;;;;;;12.98;4.75;;;;;;;19.82;56.69;98994.78;6038726;23;20102;-78
2021/08/16 05:25:14;;;;;;;14.32;5.30;;;;;;;19.82;56.71;98990.28;6038575;23;20102;-78
2021/08/16 05:27:41;;;;;;;15.82;4.82;;;;;;;19.82;56.89;98990.28;6038695;23;20096;-78
2021/08/16 05:30:09;;;;;;;16.50;5.28;;;;;;;19.83;56.92;98996.44;6038521;23;20491;-78
2021/08/16 05:32:36;;;;;;;16.35;5.20;;;;;;;19.83;56.97;98989.28;6039234;23;20069;-77
2021/08/16 05:35:05;;;;;;;13.32;4.65;;;;;;;19.84;57.19;98993.59;6038622;23;20122;-80
2021/08/16 05:37:32;;;;;;;10.48;5.03;;;;;;;19.85;56.74;98989.13;6038578;23;20096;-80
2021/08/16 05:39:59;;;;;;;14.48;5.68;;;;;;;19.86;56.97;99001.47;6038518;23;20030;-80
2021/08/16 05:42:26;;;;;;;12.75;4.78;;;;;;;19.87;57.02;99003.13;6038307;23;20227;-80
2021/08/16 05:44:53;;;;;;;19.63;6.20;;;;;;;19.86;57.05;99002.31;6038479;23;20102;-79
2021/08/16 05:47:19;;;;;;;12.77;4.78;;;;;;;19.87;57.07;98998.63;6038782;23;20107;-80
2021/08/16 05:49:46;;;;;;;15.48;5.07;;;;;;;19.88;57.02;99000.28;6038562;23;20102;-79
2021/08/16 05:52:13;;;;;;;15.48;5.38;;;;;;;19.90;57.27;99008.13;6038613;23;20383;-79
2021/08/16 05:54:42;;;;;;;13.13;4.90;;;;;;;19.90;57.11;99006.31;6037788;23;20024;-80
2021/08/16 05:57:08;;;;;;;10.50;4.70;;;;;;;19.93;57.07;99005.94;6038658;23;20110;-80
2021/08/16 05:59:35;;;;;;;13.27;5.75;;;;;;;19.94;56.81;99006.78;6038233;23;20075;-80
2021/08/16 06:02:02;;;;;;;14.10;5.03;;;;;;;19.94;56.93;99006.78;6038398;23;20463;-80
2021/08/16 06:04:29;;;;;;;14.98;5.65;;;;;;;19.93;57.09;98997.94;6038520;23;20355;-80
2021/08/16 06:06:58;;;;;;;16.20;5.80;;;;;;;19.94;57.31;99006.78;6038558;23;20063;-80
2021/08/16 06:09:24;;;;;;;13.27;5.40;;;;;;;19.95;57.04;99011.13;6038572;23;20058;-79
2021/08/16 06:11:53;;;;;;;15.30;5.53;;;;;;;19.93;57.49;99011.28;6039516;23;20063;-83
2021/08/16 06:14:20;;;;;;;20.88;6.22;;;;;;;19.95;57.23;99007.66;6037774;23;20058;-82
2021/08/16 06:16:50;;;;;;;15.75;6.13;;;;;;;19.91;57.73;98999.09;6041282;23;20073;-82
2021/08/16 06:19:17;;;;;;;12.30;5.50;;;;;;;19.91;57.19;99004.44;6039698;23;20098;-82
2021/08/16 06:21:52;;;;;;;19.10;6.03;;;;;;;19.86;58.41;98996.97;6040178;23;20490;-82
2021/08/16 06:24:18;;;;;;;13.85;5.72;;;;;;;19.89;57.51;98998.47;6039550;23;20062;-82
2021/08/16 06:26:48;;;;;;;19.40;6.93;;;;;;;19.86;57.88;99004.97;6040309;23;20031;-82
2021/08/16 06:29:15;;;;;;;16.10;6.47;;;;;;;19.87;57.54;99006.63;6041048;23;20102;-82
2021/08/16 06:32:01;;;;;;;17.02;6.55;;;;;;;19.85;57.94;99003.28;6040138;23;20103;-82
2021/08/16 06:34:28;;;;;;;14.43;6.13;;;;;;;19.91;57.82;99004.44;6039485;23;20079;-82
2021/08/16 06:36:56;;;;;;;17.13;6.38;;;;;;;19.91;57.83;99002.63;6040337;23;20045;-82
2021/08/16 06:39:24;;;;;;;16.35;6.90;;;;;;;19.91;57.92;98994.63;6040101;23;20047;-82
2021/08/16 06:41:53;;;;;;;17.88;6.47;;;;;;;19.90;58.05;98987.63;6039627;23;20102;-82
2021/08/16 06:44:23;;;;;;;13.85;5.88;;;;;;;19.89;58.02;98996.59;6039740;23;20461;-82
2021/08/16 06:46:50;;;;;;;16.58;6.20;;;;;;;19.89;57.89;98996.59;6039725;23;20031;-82
2021/08/16 06:49:17;;;;;;;13.50;6.53;;;;;;;19.89;57.86;98993.13;6039490;23;20066;-82
2021/08/16 06:51:44;;;;;;;16.58;6.93;;;;;;;19.89;58.26;98993.94;6041403;23;20402;-83
2021/08/16 06:54:42;;;;;;;15.27;7.60;;;;;;;19.86;58.81;98991.63;6039642;23;20027;-83
2021/08/16 07:00:41;;;;;;;15.25;6.68;;;;;;;19.91;58.45;98991.94;6040870;23;20240;-83
2021/08/16 07:07:02;;;;;;;15.90;6.13;;;;;;;19.90;58.57;98984.09;6069827;23;20105;-83
2021/08/16 07:09:29;;;;;;;16.20;6.32;;;;;;;19.90;58.05;98990.28;6044360;23;20069;-83
2021/08/16 07:11:56;;;;;;;15.00;6.47;;;;;;;19.89;58.17;98993.94;6044736;23;20081;-83
2021/08/16 07:18:10;;;;;;;15.80;5.63;;;;;;;19.93;58.04;98986.44;6069560;23;20525;-83
2021/08/16 07:20:37;;;;;;;15.82;5.82;;;;;;;19.93;58.27;98987.25;6044763;23;20397;-83
2021/08/16 07:26:52;;;;;;;16.75;5.75;;;;;;;19.98;57.91;98986.78;6069355;23;20057;-83
2021/08/16 07:32:43;;;;;;;14.38;5.45;;;;;;;19.98;57.89;98983.25;6069236;23;20054;-83
2021/08/16 07:35:23;;;;;;;16.25;6.55;;;;;;;19.93;58.54;98997.94;6044364;23;20481;-83
2021/08/16 07:37:50;;;;;;;13.45;5.93;;;;;;;19.97;57.93;98986.94;6069220;23;20026;-83
2021/08/16 07:40:20;;;;;;;12.63;5.38;;;;;;;19.97;58.14;98984.25;6044506;23;20049;-83
2021/08/16 07:43:09;;;;;;;14.30;6.03;;;;;;;19.94;59.16;98982.75;6043968;23;20248;-83
2021/08/16 07:45:36;;;;;;;16.13;6.25;;;;;;;20.01;58.79;98985.63;6069093;23;20106;-83
2021/08/16 07:48:04;;;;;;;14.18;6.30;;;;;;;20.03;58.80;98979.09;6043920;23;20098;-83
2021/08/16 07:50:55;;;;;;;18.67;6.38;;;;;;;20.00;59.33;98989.31;6044129;23;20022;-83
2021/08/16 07:53:22;;;;;;;15.55;6.95;;;;;;;20.05;58.60;98985.13;6043956;23;20026;-83
2021/08/16 07:55:49;;;;;;;11.85;5.93;;;;;;;20.06;59.02;98983.28;6069067;23;20066;-83
2021/08/16 07:58:37;;;;;;;14.57;6.32;;;;;;;20.03;60.12;98984.44;6044088;23;20105;-83
2021/08/16 08:01:04;;;;;;;17.13;6.90;;;;;;;20.10;59.00;98991.78;6043867;23;20109;-83
2021/08/16 08:03:36;;;;;;;14.15;6.95;;;;;;;20.06;59.82;98985.94;6044613;23;20098;-83
2021/08/16 08:06:22;;;;;;;9.63;6.93;;;;;;;20.02;59.87;98990.81;6039206;23;20329;-83
2021/08/16 08:08:49;;;;;;;11.77;6.65;;;;;;;20.05;59.25;98979.78;6038968;23;20086;-83
2021/08/16 08:11:27;;;;;;;14.05;6.85;;;;;;;19.99;60.16;98988.47;6040496;23;20059;-83
2021/08/16 08:13:53;;;;;;;14.45;7.25;;;;;;;20.01;59.74;98986.47;6039282;23;20055;-83
2021/08/16 08:16:20;;;;;;;13.50;7.18;;;;;;;20.00;59.88;98991.97;6038910;23;20065;-82
2021/08/16 08:19:18;;;;;;;12.80;7.63;;;;;;;19.91;60.96;98986.59;6040525;23;20057;-82
2021/08/16 08:21:44;;;;;;;12.98;7.00;;;;;;;19.92;60.05;98992.75;6040610;23;20055;-83
2021/08/16 08:24:32;;;;;;;13.77;7.43;;;;;;;19.82;61.42;98984.09;6038514;23;20059;-82
2021/08/16 08:26:58;;;;;;;18.98;7.63;;;;;;;19.82;60.62;98990.28;6039074;23;20120;-82
2021/08/16 08:29:28;;;;;;;12.43;7.03;;;;;;;19.76;61.34;98988.25;6038969;23;20475;-82
2021/08/16 08:31:55;;;;;;;9.63;6.60;;;;;;;19.72;61.02;98987.78;6038994;23;20401;-82
2021/08/16 08:34:22;;;;;;;14.20;7.15;;;;;;;19.69;60.93;98980.09;6038509;23;20031;-82
2021/08/16 08:37:03;;;;;;;13.80;7.45;;;;;;;19.61;62.45;98990.75;6038860;23;20023;-82
2021/08/16 08:39:30;;;;;;;11.75;7.47;;;;;;;19.63;61.12;98994.09;6038633;23;20094;-82
2021/08/16 08:41:58;;;;;;;14.98;7.88;;;;;;;19.58;61.80;99004.44;6038603;23;20029;-82
2021/08/16 08:44:25;;;;;;;11.13;6.95;;;;;;;19.54;61.71;98998.59;6038884;23;20094;-82
2021/08/16 08:46:52;;;;;;;13.98;6.85;;;;;;;19.50;62.32;98995.41;6038910;23;20098;-82
2021/08/16 08:49:24;;;;;;;10.75;7.18;;;;;;;19.44;63.85;98995.25;6038832;23;20031;-82
2021/08/16 08:51:50;;;;;;;10.50;6.57;;;;;;;19.40;62.24;98998.22;6038751;23;20455;-82
2021/08/16 08:54:35;;;;;;;10.40;6.45;;;;;;;19.35;63.96;99003.22;6038818;23;20118;-82
2021/08/16 08:57:23;;;;;;;12.02;6.80;;;;;;;19.38;62.53;99004.72;6038766;23;20046;-82
2021/08/16 08:59:52;;;;;;;12.70;6.05;;;;;;;19.36;63.69;99007.56;6040397;23;20034;-82
2021/08/16 09:02:20;;;;;;;10.13;6.43;;;;;;;19.36;63.30;99015.56;6038362;23;20069;-82
2021/08/16 09:04:54;;;;;;;9.10;6.20;;;;;;;19.35;64.25;99026.41;6038550;23;20035;-81
2021/08/16 09:07:31;;;;;;;8.35;5.40;;;;;;;19.33;64.62;99077.25;6038507;23;20031;-82
2021/08/16 09:09:58;;;;;;;4.13;2.90;;;;;;;19.37;62.49;99078.59;6040142;23;20019;-79
2021/08/16 09:12:37;;;;;;;2.17;1.60;;;;;;;19.29;61.95;99081.28;6038424;23;20028;-79
2021/08/16 09:15:25;;;;;;;2.60;1.35;;;;;;;19.23;61.62;99081.91;6038179;23;20109;-79
2021/08/16 09:17:53;;;;;;;4.53;1.13;;;;;;;19.16;60.67;99081.72;6038702;23;20102;-79
2021/08/16 09:20:33;;;;;;;1.75;1.10;;;;;;;19.00;61.31;99082.44;6038718;23;20490;-79
2021/08/16 09:23:07;;;;;;;1.30;0.90;;;;;;;18.89;61.70;99075.56;6039276;23;20031;-78
2021/08/16 09:25:39;;;;;;;2.40;1.17;;;;;;;18.79;62.22;99067.66;6038860;23;20035;-79
2021/08/16 09:28:07;;;;;;;1.80;1.20;;;;;;;18.72;62.51;99066.59;6038929;23;20027;-79
2021/08/16 09:30:35;;;;;;;2.92;1.27;;;;;;;18.68;62.44;99051.94;6038248;23;20410;-80
2021/08/16 09:33:17;;;;;;;2.63;1.45;;;;;;;18.62;64.19;99064.91;6038326;23;20056;-81
2021/08/16 09:35:57;;;;;;;3.63;1.73;;;;;;;18.63;63.82;99063.06;6038482;23;20490;-81
2021/08/16 09:38:36;;;;;;;3.72;1.80;;;;;;;18.66;65.12;99054.78;6038212;23;20069;-81
2021/08/16 09:41:06;;;;;;;3.22;1.80;;;;;;;18.75;63.71;99058.31;6038175;23;20090;-81
2021/08/16 09:43:33;;;;;;;4.40;2.00;;;;;;;18.83;64.20;99066.34;6038790;23;20107;-81
2021/08/16 09:46:01;;;;;;;3.25;2.03;;;;;;;18.93;64.64;99068.06;6038092;23;20122;-81
2021/08/16 09:48:28;;;;;;;3.15;1.80;;;;;;;19.03;64.57;99066.13;6038366;23;20079;-82
2021/08/16 09:50:57;;;;;;;4.22;1.98;;;;;;;19.16;65.13;99065.69;6040594;23;20462;-82
2021/08/16 09:53:25;;;;;;;4.90;2.40;;;;;;;19.32;64.68;99070.25;6041515;23;20027;-82
2021/08/16 09:56:02;;;;;;;3.40;2.10;;;;;;;19.46;65.50;99067.97;6039940;23;20058;-82
2021/08/16 09:58:29;;;;;;;5.22;2.13;;;;;;;19.63;64.54;99068.84;6040457;23;20023;-83
2021/08/16 10:01:06;;;;;;;3.85;2.20;;;;;;;19.74;64.39;99067.72;6040337;23;20055;-83
2021/08/16 10:03:36;;;;;;;5.35;2.25;;;;;;;19.89;64.32;99074.06;6040200;23;20027;-81
2021/08/16 10:06:04;;;;;;;4.35;2.20;;;;;;;19.98;63.27;99061.59;6044055;23;20019;-81
2021/08/16 10:08:38;;;;;;;2.80;2.15;;;;;;;20.04;62.91;99076.13;6040071;23;20075;-83
2021/08/16 10:11:05;;;;;;;;;;;;;;;20.08;62.63;99071.28;6041005;23;20458;-82
2021/08/16 10:13:35;;;;;;;4.32;2.25;;;;;;;20.17;62.78;99068.44;6040349;23;19990;-82
2021/08/16 10:19:45;;;;;;;5.43;2.42;;;;;;;20.22;61.52;99075.13;6041484;23;20346;-83
2021/08/16 10:25:57;;;;;;;4.78;2.63;;;;;;;20.12;61.86;99077.97;6041584;23;20391;-83
2021/08/16 10:28:33;;;;;;;3.88;2.20;;;;;;;20.09;61.36;99073.78;6040163;23;20455;-82
2021/08/16 10:31:02;;;;;;;5.32;2.08;;;;;;;20.03;61.73;99090.47;6040171;23;20467;-82
2021/08/16 10:33:43;;;;;;;3.65;2.28;;;;;;;19.93;62.95;99088.75;6039786;23;20059;-83
2021/08/16 10:36:23;;;;;;;4.88;2.38;;;;;;;19.90;62.55;99083.75;6039939;23;20051;-83
2021/08/16 10:38:53;;;;;;;4.55;2.30;;;;;;;19.92;62.45;99084.41;6039670;23;20054;-83
2021/08/16 10:41:28;;;;;;;4.32;2.33;;;;;;;19.87;62.36;99084.09;6039521;23;20055;-82
2021/08/16 10:43:56;;;;;;;5.45;2.42;;;;;;;19.88;61.83;99100.91;6039703;23;20027;-83
2021/08/16 10:46:24;;;;;;;4.85;2.30;;;;;;;19.84;62.06;99089.75;6041410;23;20490;-83
2021/08/16 10:49:07;;;;;;;4.05;2.20;;;;;;;19.76;62.48;99093.25;6039628;23;20033;-83
2021/08/16 10:51:42;;;;;;;3.83;2.22;;;;;;;19.76;62.66;99109.25;6039977;23;20444;-83
2021/08/16 10:54:21;;;;;;;3.63;1.83;;;;;;;19.75;61.12;99104.09;6039759;23;20059;-83
2021/08/16 10:56:52;;;;;;;4.82;2.33;;;;;;;19.71;61.43;99110.75;6039951;23;20459;-83
2021/08/16 10:59:23;;;;;;;4.38;1.88;;;;;;;19.64;60.86;99103.41;6039811;23;20351;-83
2021/08/16 11:01:50;;;;;;;4.03;2.03;;;;;;;19.61;60.82;99094.88;6039338;23;20463;-83
2021/08/16 11:04:34;;;;;;;4.07;2.00;;;;;;;19.57;60.77;99104.19;5961552;24;20029;-83
2021/08/16 11:07:22;;;;;;;4.93;2.00;;;;;;;19.50;61.55;99109.34;5959222;24;20024;-83
2021/08/16 11:09:58;;;;;;;4.32;1.88;;;;;;;19.49;61.54;99107.69;5959126;24;20528;-82
2021/08/16 11:12:42;;;;;;;5.93;1.88;;;;;;;19.49;62.22;99097.84;5958848;24;20044;-82
2021/08/16 11:15:17;;;;;;;5.15;2.55;;;;;;;19.55;62.36;99079.50;5959283;24;20072;-82
2021/08/16 11:17:44;;;;;;;4.25;2.20;;;;;;;19.62;62.49;99086.69;5959049;24;20024;-80
2021/08/16 11:20:16;;;;;;;3.03;1.80;;;;;;;19.71;62.38;99095.56;5958190;24;20032;-80
2021/08/16 11:22:54;;;;;;;4.97;1.90;;;;;;;19.80;61.60;99088.41;5999617;23;20102;-80
2021/08/16 11:25:21;;;;;;;3.63;1.70;;;;;;;19.93;61.49;99083.41;6039335;23;20054;-80
2021/08/16 11:28:02;;;;;;;4.45;2.20;;;;;;;19.99;60.23;99079.28;6039602;23;20489;-79
2021/08/16 11:30:30;;;;;;;6.25;1.95;;;;;;;20.10;60.00;99093.31;6039736;23;20060;-79
2021/08/16 11:33:04;;;;;;;4.72;1.90;;;;;;;20.14;59.77;99094.63;6041539;23;20447;-79
2021/08/16 11:35:31;;;;;;;3.28;1.77;;;;;;;20.23;59.63;99103.50;6038913;23;20106;-80
2021/08/16 11:38:12;;;;;;;5.07;2.30;;;;;;;20.24;58.58;99099.81;6039034;23;20058;-79
2021/08/16 11:40:39;;;;;;;9.73;2.10;;;;;;;20.33;59.17;99101.50;6038898;23;20063;-79
2021/08/16 11:43:06;;;;;;;6.07;2.28;;;;;;;20.38;58.65;99099.19;6039415;23;20507;-79
2021/08/16 11:45:53;;;;;;;5.53;1.98;;;;;;;20.42;58.34;99105.81;6038990;23;20027;-79
2021/08/16 11:48:23;;;;;;;6.32;1.95;;;;;;;20.57;58.59;99100.63;6040178;23;20023;-80
2021/08/16 11:50:57;;;;;;;6.47;2.30;;;;;;;20.67;58.72;99099.66;6039011;23;20102;-79
2021/08/16 11:53:24;;;;;;;4.65;2.10;;;;;;;20.81;58.50;99096.25;6039027;23;20102;-79
2021/08/16 11:56:03;;;;;;;7.72;2.30;;;;;;;20.86;57.73;99106.44;6038677;23;20106;-80
2021/08/16 11:58:41;;;;;;;4.43;2.20;;;;;;;20.92;57.26;99102.28;6038874;23;20098;-80
2021/08/16 12:01:09;;;;;;;6.82;2.40;;;;;;;20.97;56.82;99099.91;6039589;23;20391;-79
2021/08/16 12:03:38;;;;;;;5.15;2.20;;;;;;;20.96;56.42;99111.63;6039381;23;20324;-80
2021/08/16 12:06:12;;;;;;;5.85;2.47;;;;;;;20.89;56.00;99116.84;6039166;23;20080;-80
2021/08/16 12:08:39;;;;;;;6.47;2.42;;;;;;;20.84;56.96;99127.19;5958712;24;20028;-80
2021/08/16 12:11:14;;;;;;;6.80;2.70;;;;;;;20.74;57.62;99123.88;5981622;24;20073;-81